• Join FlightAware (Why Join?)
  • Login
  • US Flag 
12:24AM EDT


 

Airport Tracker/Info


-or-


 

Live Flight TrackerFlight Track Log ✈ AAL961 ✈ 10-May-2013 ✈ KMIA - SBMN / PLL

Flight Track Log - Related Links

Times and Time Zones

All times are in EDT time to prevent confusion due to time zone crossing. See the AAL961 flight status page for this flight to view local times or setup timezone preferences in your user account.

Time Position Orientation Groundspeed Altitude Reporting Facility
EDT Latitude Longitude Course Direction KTS MPH feet Rate Location/Type
05:46PM 25.7983 -80.2722 105° East 136 157 1,000  Level Miami Center
05:47PM 25.7769 -80.1956 107° East 231 266 2,700 1,860 Climbing Miami Center
05:48PM 25.7672 -80.1675 111° Southeast 270 311 4,100 2,580 Climbing Miami Center
05:48PM 25.7642 -80.1167 94° East 275 316 5,300 2,580 Climbing Miami Center
05:49PM 25.6775 -79.8819 104° East  Level FlightAware Approximate
05:49PM 25.7503 -80.0839 115° Southeast 285 328 6,800  Level Miami Center
05:49PM 25.7408 -80.0353 102° East 297 342 8,100 2,280 Climbing Miami Center
05:50PM 25.6449 -79.7463 105° East  Level FlightAware Approximate
05:50PM 25.7178 -79.9425 105° East 304 350 10,600  Level Miami Center
05:51PM 25.6242 -79.6089 104° East  Level FlightAware Approximate
05:51PM 25.6947 -79.8381 104° East 318 366 12,800  Level Miami Center
05:52PM 25.5932 -79.4728 105° East  Level FlightAware Approximate
05:52PM 25.6678 -79.7269 105° East 347 399 15,300  Level Miami Center
05:53PM 25.6386 -79.6156 106° East 366 421 17,400 1,920 Climbing Miami Center
05:54PM 25.6117 -79.4950 104° East 380 437 19,200 2,040 Climbing Miami Center
05:55PM 25.5783 -79.3700 106° East 402 463 21,500 1,860 Climbing Miami Center
05:56PM 25.5364 -79.2494 111° Southeast 408 470 23,000 660 Climbing Miami Center
05:57PM 25.4586 -79.1467 130° Southeast 414 476 22,900  Descending Miami Center
05:58PM 25.3786 -79.0439 131° Southeast 432 497 23,000 900 Climbing Miami Center
05:59PM 25.3389 -78.9053 108° East 425 489 24,800 1,620 Climbing Miami Center
06:00PM 25.3156 -78.7739 101° East 431 496 26,300 1,380 Climbing Miami Center
06:01PM 25.2797 -78.6375 106° East 442 509 27,600 1,320 Climbing Miami Center
06:02PM 25.2414 -78.5017 107° East 454 522 29,000 660 Climbing Miami Center
06:03PM 25.1761 -78.3744 120° Southeast 454 522 29,000  Level Miami Center
06:04PM 25.1061 -78.2519 122° Southeast 466 536 29,000 300 Level Miami Center
06:05PM 25.0044 -78.1614 141° Southeast 466 536 29,600 900 Climbing Miami Center
06:06PM 24.9092 -78.0594 136° Southeast 466 536 30,800 1,020 Climbing Miami Center
06:07PM 24.8119 -77.9508 135° Southeast 477 549 31,700 960 Climbing Miami Center
06:08PM 24.7144 -77.8447 135° Southeast 482 555 32,800 1,080 Climbing Miami Center
06:09PM 24.6169 -77.7367 135° Southeast 487 560 33,900 1,080 Climbing Miami Center
06:10PM 24.5192 -77.6308 135° Southeast 493 567 35,000 900 Climbing Miami Center
06:11PM 24.4422 -77.5458 135° Southeast 493 567 35,800 900 Climbing Miami Center
06:12PM 24.3278 -77.4200 135° Southeast 488 562 36,900 600 Climbing Miami Center
06:13PM 24.2300 -77.3147 136° Southeast 488 562 37,000  Climbing Miami Center
06:14PM 24.1342 -77.2094 135° Southeast 488 562 37,000  Level Miami Center
06:15PM 24.0383 -77.1022 134° Southeast 488 562 37,000  Level Miami Center
06:16PM 23.9422 -76.9975 135° Southeast 488 562 37,000  Level Miami Center
06:17PM 23.8586 -76.9067 135° Southeast 483 556 37,000  Level Miami Center
06:18PM 23.7583 -76.8022 136° Southeast 483 556 37,000  Level Miami Center
06:19PM 23.6622 -76.6978 135° Southeast 483 556 37,000  Level Miami Center
06:20PM 23.5639 -76.5936 136° Southeast 483 556 37,000  Level Miami Center
06:21PM 23.4675 -76.4919 136° Southeast 483 556 37,000  Level Miami Center
06:22PM 23.3711 -76.3881 135° Southeast 483 556 37,000  Level Miami Center
06:23PM 23.2725 -76.2844 136° Southeast 488 562 37,000  Level Miami Center
06:24PM 23.1739 -76.1808 136° Southeast 488 562 37,000  Level Miami Center
06:25PM 23.0750 -76.0753 136° Southeast 488 562 37,000  Level Miami Center
06:26PM 22.9783 -75.9722 136° Southeast 488 562 37,000  Level Miami Center
06:27PM 22.8794 -75.8692 136° Southeast 488 562 37,000  Level Miami Center
06:28PM 22.7828 -75.7639 135° Southeast 488 562 37,000  Level Miami Center
06:29PM 22.6836 -75.6633 137° Southeast 488 562 37,000  Level Miami Center
06:30PM 22.5847 -75.5586 136° Southeast 488 562 37,000  Level Miami Center
06:31PM 22.4875 -75.4561 136° Southeast 488 562 37,000  Level Miami Center
06:32PM 22.3906 -75.3517 135° Southeast 488 562 37,000  Level Miami Center
06:33PM 22.2892 -75.2494 137° Southeast 488 562 37,000  Level Miami Center
06:34PM 22.1900 -75.1478 136° Southeast 488 562 37,000  Level Miami Center
06:35PM 22.0947 -75.0458 135° Southeast 488 562 37,000  Level Miami Center
06:36PM 21.9869 -74.9508 141° Southeast 493 567 37,000  Level Miami Center
06:37PM 21.8833 -74.8494 138° Southeast 500 575 37,000  Level Miami Center
06:38PM 21.7775 -74.7483 138° Southeast 500 575 37,000  Level Miami Center
06:39PM 21.6633 -74.6339 137° Southeast 510 587 37,000  Level Miami Center
06:40PM 21.5572 -74.5331 139° Southeast 510 587 37,000  Level Miami Center
06:41PM 21.4514 -74.4344 139° Southeast 510 587 37,000 -60 Level Miami Center
06:42PM 21.3433 -74.3339 139° Southeast 510 587 36,900 -60 Descending Miami Center
06:43PM 21.2372 -74.2336 139° Southeast 515 593 36,900  Level Miami Center
06:44PM 21.1311 -74.1333 139° Southeast 515 593 37,000  Climbing Miami Center
06:45PM 21.0228 -74.0356 140° Southeast 515 593 37,000  Level Miami Center
06:46PM 20.9208 -73.9375 138° Southeast 510 587 37,000  Level Miami Center
06:47PM 20.8125 -73.8378 139° Southeast 510 587 37,000 -60 Level Miami Center
06:48PM 20.7042 -73.7381 139° Southeast 515 593 36,900  Descending Miami Center
06:49PM 20.5914 -73.6344 139° Southeast 520 598 37,000  Climbing Miami Center
06:50PM 20.4808 -73.5308 139° Southeast 520 598 37,000 -60 Level Miami Center
06:51PM 20.3700 -73.4294 139° Southeast 520 598 36,900  Descending Miami Center
06:52PM 20.2592 -73.3261 139° Southeast 526 605 37,000  Climbing Miami Center
06:53PM 20.1483 -73.2250 139° Southeast 521 600 37,000  Level Miami Center
06:54PM 20.0356 -73.1289 141° Southeast 527 606 37,000  Level Miami Center
06:56PM 19.9337 -73.0443 142° Southeast  Level FlightAware Approximate
07:03PM 19.2425 -72.4743 142° Southeast  Level FlightAware Approximate
07:04PM 19.1436 -72.3933 142° Southeast  Level FlightAware Approximate
07:05PM 19.0447 -72.3123 142° Southeast  Level FlightAware Approximate
07:06PM 18.9458 -72.2315 142° Southeast  Level FlightAware Approximate
07:07PM 18.8468 -72.1508 142° Southeast  Level FlightAware Approximate
07:08PM 18.7478 -72.0701 142° Southeast  Level FlightAware Approximate
07:09PM 18.6487 -71.9896 142° Southeast  Level FlightAware Approximate
07:10PM 18.5523 -71.9022 137° Southeast  Level FlightAware Approximate
07:11PM 18.4515 -71.8210 146° Southeast  Level FlightAware Approximate
07:12PM 18.3455 -71.7466 145° Southeast  Level FlightAware Approximate
07:13PM 18.2422 -71.6683 144° Southeast  Level FlightAware Approximate
07:14PM 18.1395 -71.5892 144° Southeast  Level FlightAware Approximate
07:15PM 18.0367 -71.5101 144° Southeast  Level FlightAware Approximate
07:16PM 17.9339 -71.4312 144° Southeast  Level FlightAware Approximate
07:17PM 17.8311 -71.3523 144° Southeast  Level FlightAware Approximate
07:18PM 17.7282 -71.2736 144° Southeast  Level FlightAware Approximate
07:19PM 17.6253 -71.1949 144° Southeast  Level FlightAware Approximate
07:20PM 17.5224 -71.1163 144° Southeast  Level FlightAware Approximate
07:21PM 17.4195 -71.0378 144° Southeast  Level FlightAware Approximate
07:22PM 17.3165 -70.9594 144° Southeast  Level FlightAware Approximate
07:23PM 17.2135 -70.8811 144° Southeast  Level FlightAware Approximate
07:24PM 17.1104 -70.8029 144° Southeast  Level FlightAware Approximate
07:25PM 17.0073 -70.7248 144° Southeast  Level FlightAware Approximate
07:26PM 16.9042 -70.6467 144° Southeast  Level FlightAware Approximate
07:27PM 16.8011 -70.5687 144° Southeast  Level FlightAware Approximate
07:28PM 16.6980 -70.4909 144° Southeast  Level FlightAware Approximate
07:29PM 16.5948 -70.4130 144° Southeast  Level FlightAware Approximate
07:30PM 16.4915 -70.3353 144° Southeast  Level FlightAware Approximate
07:31PM 16.3883 -70.2577 144° Southeast  Level FlightAware Approximate
07:32PM 16.2850 -70.1802 144° Southeast  Level FlightAware Approximate
07:33PM 16.1817 -70.1027 144° Southeast  Level FlightAware Approximate
07:34PM 16.0784 -70.0253 144° Southeast  Level FlightAware Approximate
07:35PM 15.9750 -69.9480 144° Southeast  Level FlightAware Approximate
07:36PM 15.8717 -69.8706 144° Southeast  Level FlightAware Approximate
07:37PM 15.7683 -69.7934 144° Southeast  Level FlightAware Approximate
07:38PM 15.6650 -69.7162 144° Southeast  Level FlightAware Approximate
07:39PM 15.5616 -69.6391 144° Southeast  Level FlightAware Approximate
07:40PM 15.4581 -69.5621 144° Southeast  Level FlightAware Approximate
07:41PM 15.3547 -69.4852 144° Southeast  Level FlightAware Approximate
07:42PM 15.2512 -69.4083 144° Southeast  Level FlightAware Approximate
07:43PM 15.1477 -69.3315 144° Southeast  Level FlightAware Approximate
07:44PM 15.0441 -69.2548 144° Southeast  Level FlightAware Approximate
07:45PM 14.9406 -69.1782 144° Southeast  Level FlightAware Approximate
07:46PM 14.8370 -69.1016 144° Southeast  Level FlightAware Approximate
07:47PM 14.7334 -69.0251 144° Southeast  Level FlightAware Approximate
07:48PM 14.6297 -68.9487 144° Southeast  Level FlightAware Approximate
07:49PM 14.5261 -68.8724 145° Southeast  Level FlightAware Approximate
07:50PM 14.4224 -68.7961 145° Southeast  Level FlightAware Approximate
07:51PM 14.3187 -68.7199 145° Southeast  Level FlightAware Approximate
07:52PM 14.2149 -68.6438 145° Southeast  Level FlightAware Approximate
07:53PM 14.1112 -68.5677 145° Southeast  Level FlightAware Approximate
07:54PM 14.0074 -68.4917 145° Southeast  Level FlightAware Approximate
07:55PM 13.9036 -68.4158 145° Southeast  Level FlightAware Approximate
07:56PM 13.7997 -68.3400 145° Southeast  Level FlightAware Approximate
07:57PM 13.6959 -68.2642 145° Southeast  Level FlightAware Approximate
07:58PM 13.5920 -68.1885 145° Southeast  Level FlightAware Approximate
07:59PM 13.4881 -68.1128 145° Southeast  Level FlightAware Approximate
08:00PM 13.3842 -68.0372 145° Southeast  Level FlightAware Approximate
08:01PM 13.2802 -67.9617 145° Southeast  Level FlightAware Approximate
08:02PM 13.1763 -67.8863 145° Southeast  Level FlightAware Approximate
08:03PM 13.0723 -67.8109 145° Southeast  Level FlightAware Approximate
08:04PM 12.9683 -67.7355 145° Southeast  Level FlightAware Approximate
08:05PM 12.8642 -67.6603 145° Southeast  Level FlightAware Approximate
08:06PM 12.7597 -67.5857 145° Southeast  Level FlightAware Approximate
08:07PM 12.6551 -67.5113 145° Southeast  Level FlightAware Approximate
08:08PM 12.5505 -67.4370 145° Southeast  Level FlightAware Approximate
08:09PM 12.4459 -67.3627 145° Southeast  Level FlightAware Approximate
08:10PM 12.3412 -67.2885 145° Southeast  Level FlightAware Approximate
08:11PM 12.2366 -67.2144 145° Southeast  Level FlightAware Approximate
08:12PM 12.1319 -67.1403 145° Southeast  Level FlightAware Approximate
08:13PM 12.0271 -67.0663 145° Southeast  Level FlightAware Approximate
08:14PM 11.9225 -66.9922 145° Southeast  Level FlightAware Approximate
08:15PM 11.8182 -66.9175 145° Southeast  Level FlightAware Approximate
08:16PM 11.7139 -66.8429 145° Southeast  Level FlightAware Approximate
08:17PM 11.6096 -66.7684 145° Southeast  Level FlightAware Approximate
08:18PM 11.5053 -66.6939 145° Southeast  Level FlightAware Approximate
08:19PM 11.4010 -66.6195 145° Southeast  Level FlightAware Approximate
08:20PM 11.2967 -66.5451 145° Southeast  Level FlightAware Approximate
08:21PM 11.1923 -66.4708 145° Southeast  Level FlightAware Approximate
08:22PM 11.0879 -66.3965 145° Southeast  Level FlightAware Approximate
08:23PM 10.9836 -66.3223 145° Southeast  Level FlightAware Approximate
08:24PM 10.8792 -66.2481 145° Southeast  Level FlightAware Approximate
08:25PM 10.7747 -66.1740 145° Southeast  Level FlightAware Approximate
08:26PM 10.6703 -66.0999 145° Southeast  Level FlightAware Approximate
08:27PM 10.5658 -66.0259 145° Southeast  Level FlightAware Approximate
08:28PM 10.4613 -65.9519 145° Southeast  Level FlightAware Approximate
08:29PM 10.3568 -65.8780 145° Southeast  Level FlightAware Approximate
08:30PM 10.2523 -65.8041 145° Southeast  Level FlightAware Approximate
08:31PM 10.1478 -65.7303 145° Southeast  Level FlightAware Approximate
08:32PM 10.0433 -65.6565 145° Southeast  Level FlightAware Approximate
08:33PM 9.9387 -65.5828 145° Southeast  Level FlightAware Approximate
08:34PM 9.8341 -65.5091 145° Southeast  Level FlightAware Approximate
08:35PM 9.7295 -65.4355 145° Southeast  Level FlightAware Approximate
08:36PM 9.6249 -65.3619 145° Southeast  Level FlightAware Approximate
08:37PM 9.5203 -65.2884 145° Southeast  Level FlightAware Approximate
08:38PM 9.4157 -65.2149 145° Southeast  Level FlightAware Approximate
08:39PM 9.3110 -65.1414 145° Southeast  Level FlightAware Approximate
08:40PM 9.2063 -65.0680 145° Southeast  Level FlightAware Approximate
08:41PM 9.1017 -64.9947 145° Southeast  Level FlightAware Approximate
08:42PM 8.9970 -64.9213 145° Southeast  Level FlightAware Approximate
08:43PM 8.8923 -64.8481 145° Southeast  Level FlightAware Approximate
08:44PM 8.7875 -64.7748 145° Southeast  Level FlightAware Approximate
08:45PM 8.6828 -64.7016 145° Southeast  Level FlightAware Approximate
08:46PM 8.5780 -64.6284 145° Southeast  Level FlightAware Approximate
08:47PM 8.4733 -64.5553 145° Southeast  Level FlightAware Approximate
08:48PM 8.3685 -64.4823 145° Southeast  Level FlightAware Approximate
08:49PM 8.2637 -64.4092 145° Southeast  Level FlightAware Approximate
08:50PM 8.1589 -64.3362 145° Southeast  Level FlightAware Approximate
08:51PM 8.0540 -64.2633 145° Southeast  Level FlightAware Approximate
08:52PM 7.9492 -64.1903 145° Southeast  Level FlightAware Approximate
08:53PM 7.8443 -64.1175 145° Southeast  Level FlightAware Approximate
08:54PM 7.7395 -64.0446 145° Southeast  Level FlightAware Approximate
08:55PM 7.6346 -63.9718 145° Southeast  Level FlightAware Approximate
08:56PM 7.5297 -63.8990 145° Southeast  Level FlightAware Approximate
08:57PM 7.4248 -63.8263 145° Southeast  Level FlightAware Approximate
08:58PM 7.3199 -63.7536 145° Southeast  Level FlightAware Approximate
08:59PM 7.2150 -63.6809 146° Southeast  Level FlightAware Approximate
09:00PM 7.1101 -63.6083 146° Southeast  Level FlightAware Approximate
09:01PM 7.0051 -63.5357 146° Southeast  Level FlightAware Approximate
09:02PM 6.9002 -63.4631 146° Southeast  Level FlightAware Approximate
09:03PM 6.7952 -63.3906 146° Southeast  Level FlightAware Approximate
09:04PM 6.6902 -63.3181 146° Southeast  Level FlightAware Approximate
09:05PM 6.5852 -63.2456 146° Southeast  Level FlightAware Approximate
09:06PM 6.4802 -63.1731 146° Southeast  Level FlightAware Approximate
09:07PM 6.3752 -63.1007 146° Southeast  Level FlightAware Approximate
09:08PM 6.2703 -63.0281 145° Southeast  Level FlightAware Approximate
09:09PM 6.1655 -62.9554 145° Southeast  Level FlightAware Approximate
09:10PM 6.0607 -62.8828 145° Southeast  Level FlightAware Approximate
09:11PM 5.9559 -62.8102 145° Southeast  Level FlightAware Approximate
09:12PM 5.8510 -62.7376 145° Southeast  Level FlightAware Approximate
09:13PM 5.7462 -62.6651 145° Southeast  Level FlightAware Approximate
09:14PM 5.6413 -62.5926 145° Southeast  Level FlightAware Approximate
09:15PM 5.5364 -62.5201 145° Southeast  Level FlightAware Approximate
09:16PM 5.4315 -62.4476 145° Southeast  Level FlightAware Approximate
09:17PM 5.3266 -62.3752 145° Southeast  Level FlightAware Approximate
09:18PM 5.2217 -62.3027 145° Southeast  Level FlightAware Approximate
09:19PM 5.1168 -62.2304 145° Southeast  Level FlightAware Approximate
09:20PM 5.0119 -62.1580 146° Southeast  Level FlightAware Approximate
09:21PM 4.9069 -62.0857 146° Southeast  Level FlightAware Approximate
09:22PM 4.8020 -62.0133 146° Southeast  Level FlightAware Approximate
09:23PM 4.6971 -61.9410 146° Southeast  Level FlightAware Approximate
09:24PM 4.5921 -61.8688 146° Southeast  Level FlightAware Approximate
09:25PM 4.4871 -61.7965 146° Southeast  Level FlightAware Approximate
09:26PM 4.3822 -61.7243 146° Southeast  Level FlightAware Approximate
09:27PM 4.2772 -61.6520 146° Southeast  Level FlightAware Approximate
09:28PM 4.1719 -61.5802 146° Southeast  Level FlightAware Approximate
09:29PM 4.0665 -61.5086 146° Southeast  Level FlightAware Approximate
09:30PM 3.9612 -61.4370 146° Southeast  Level FlightAware Approximate
09:31PM 3.8558 -61.3655 146° Southeast  Level FlightAware Approximate
09:32PM 3.7504 -61.2939 146° Southeast  Level FlightAware Approximate
09:33PM 3.6450 -61.2224 146° Southeast  Level FlightAware Approximate
09:34PM 3.5396 -61.1508 146° Southeast  Level FlightAware Approximate
09:35PM 3.4342 -61.0793 146° Southeast  Level FlightAware Approximate
09:36PM 3.3288 -61.0078 146° Southeast  Level FlightAware Approximate
09:37PM 3.2234 -60.9364 146° Southeast  Level FlightAware Approximate
09:38PM 3.1179 -60.8649 146° Southeast  Level FlightAware Approximate
09:39PM 3.0125 -60.7934 146° Southeast  Level FlightAware Approximate
09:40PM 2.9071 -60.7220 146° Southeast  Level FlightAware Approximate
09:41PM 2.7920 -60.6768 174° South  Level FlightAware Approximate
09:42PM 2.6655 -60.6627 174° South  Level FlightAware Approximate
09:43PM 2.5390 -60.6485 174° South  Level FlightAware Approximate
09:44PM 2.4125 -60.6344 174° South  Level FlightAware Approximate
09:45PM 2.2860 -60.6203 174° South  Level FlightAware Approximate
09:46PM 2.1595 -60.6061 174° South  Level FlightAware Approximate
09:47PM 2.0329 -60.5920 174° South  Level FlightAware Approximate
09:48PM 1.9064 -60.5779 174° South  Level FlightAware Approximate
09:49PM 1.7799 -60.5637 174° South  Level FlightAware Approximate
09:50PM 1.6534 -60.5496 174° South  Level FlightAware Approximate
09:51PM 1.5269 -60.5355 174° South  Level FlightAware Approximate
09:52PM 1.4004 -60.5213 174° South  Level FlightAware Approximate
09:53PM 1.2739 -60.5072 174° South  Level FlightAware Approximate
09:54PM 1.1474 -60.4931 174° South  Level FlightAware Approximate
09:55PM 1.0209 -60.4790 174° South  Level FlightAware Approximate
09:56PM 0.8943 -60.4648 174° South  Level FlightAware Approximate
09:57PM 0.7678 -60.4507 174° South  Level FlightAware Approximate
09:58PM 0.6413 -60.4366 174° South  Level FlightAware Approximate
09:59PM 0.5148 -60.4225 174° South  Level FlightAware Approximate
10:00PM 0.3883 -60.4084 174° South  Level FlightAware Approximate
10:01PM 0.2618 -60.3942 174° South  Level FlightAware Approximate
10:02PM 0.1353 -60.3801 174° South  Level FlightAware Approximate
10:03PM 0.0088 -60.3660 174° South  Level FlightAware Approximate
10:04PM -0.1177 -60.3519 174° South  Level FlightAware Approximate
10:05PM -0.2442 -60.3378 174° South  Level FlightAware Approximate
10:06PM -0.3708 -60.3237 174° South  Level FlightAware Approximate
10:07PM -0.4975 -60.3108 175° South  Level FlightAware Approximate
10:08PM -0.6242 -60.2992 174° South  Level FlightAware Approximate
10:09PM -0.7508 -60.2851 174° South  Level FlightAware Approximate
10:10PM -0.8773 -60.2710 174° South  Level FlightAware Approximate
10:11PM -1.0038 -60.2570 174° South  Level FlightAware Approximate
10:12PM -1.1307 -60.2500 180° South  Level FlightAware Approximate
10:13PM -1.2573 -60.2362 174° South  Level FlightAware Approximate
10:14PM -1.3838 -60.2222 174° South  Level FlightAware Approximate
10:15PM -1.5102 -60.2076 173° South  Level FlightAware Approximate
10:16PM -1.6367 -60.1927 173° South  Level FlightAware Approximate
10:17PM -1.7632 -60.1788 174° South  Level FlightAware Approximate
10:18PM -1.8899 -60.1666 174° South  Level FlightAware Approximate
10:19PM -2.0166 -60.1543 174° South  Level FlightAware Approximate
10:20PM -2.1433 -60.1421 174° South  Level FlightAware Approximate
10:21PM -2.2700 -60.1297 174° South  Level FlightAware Approximate
10:22PM -2.3967 -60.1170 174° South  Level FlightAware Approximate
10:23PM -2.5225 -60.0978 171° South  Level FlightAware Approximate
10:24PM -2.6486 -60.0801 174° South  Level FlightAware Approximate
10:25PM -2.7752 -60.0675 174° South  Level FlightAware Approximate
10:26PM -2.9018 -60.0596 169° South  Level FlightAware Approximate
10:27PM -3.0167 -60.0500 180° South  Level FlightAware Approximate
10:28PM -3.0386 -60.0497 180° South  Level Estimated
10:29PM -3.0386 -60.0497 180° South  Level Estimated
10:30PM -3.0386 -60.0497 180° South  Level Estimated
10:31PM -3.0386 -60.0497 180° South  Level Estimated
10:32PM -3.0386 -60.0497 180° South  Level Estimated